Time;durP1;ratioP1;P1;durP2;ratioP2;P2;SDS_P1;SDS_P2;PMS_P1;PMS_P2;Temp;Humidity;BMP_temperature;BMP_pressure;BME280_temperature;BME280_humidity;BME280_pressure;Samples;Min_cycle;Max_cycle;Signal;HPM_P1;HPM_P2
2022/07/08 00:00:46;;;;;;;11.13;2.38;;;13.80;99.90;;;;;;5056047;28;20174;-76
2022/07/08 00:03:11;;;;;;;7.40;2.40;;;13.80;99.90;;;;;;5037927;28;20264;-76
2022/07/08 00:05:38;;;;;;;6.18;2.22;;;13.80;99.90;;;;;;5037945;28;20178;-76
2022/07/08 00:08:04;;;;;;;7.80;1.83;;;13.80;99.90;;;;;;5037831;28;20197;-76
2022/07/08 00:10:29;;;;;;;6.35;1.83;;;13.90;99.90;;;;;;5055677;28;20637;-76
2022/07/08 00:12:55;;;;;;;5.13;2.30;;;13.90;99.90;;;;;;5038617;28;20186;-76
2022/07/08 00:15:21;;;;;;;7.90;2.30;;;14.00;99.90;;;;;;5037936;28;20194;-76
2022/07/08 00:17:47;;;;;;;5.57;2.03;;;13.90;99.90;;;;;;5037573;28;20185;-76
2022/07/08 00:20:12;;;;;;;7.53;2.17;;;13.90;99.90;;;;;;5037514;28;20178;-76
2022/07/08 00:22:38;;;;;;;5.60;1.92;;;13.90;99.90;;;;;;5037069;28;20209;-76
2022/07/08 00:25:04;;;;;;;8.20;2.10;;;13.90;99.90;;;;;;5037934;28;20251;-76
2022/07/08 00:27:30;;;;;;;7.50;2.10;;;14.00;99.90;;;;;;5037697;28;20596;-76
2022/07/08 00:29:56;;;;;;;6.53;2.08;;;14.10;99.90;;;;;;5055553;28;20174;-76
2022/07/08 00:32:21;;;;;;;7.60;2.20;;;14.10;99.90;;;;;;5055162;28;20181;-76
2022/07/08 00:34:47;;;;;;;6.80;1.83;;;14.00;99.90;;;;;;5037523;28;20198;-76
2022/07/08 00:37:13;;;;;;;8.13;2.33;;;13.90;99.90;;;;;;5054969;28;20182;-76
2022/07/08 00:39:38;;;;;;;9.63;2.05;;;14.00;99.90;;;;;;5038192;28;20259;-76
2022/07/08 00:42:05;;;;;;;5.43;2.08;;;13.90;99.90;;;;;;5037098;28;20273;-76
2022/07/08 00:44:31;;;;;;;5.03;1.85;;;13.90;99.90;;;;;;5037356;28;20210;-76
2022/07/08 00:46:56;;;;;;;5.38;1.98;;;13.90;99.90;;;;;;5054797;28;20182;-76
2022/07/08 00:49:22;;;;;;;6.57;2.10;;;13.90;99.90;;;;;;5037898;28;20228;-76
2022/07/08 00:51:48;;;;;;;5.00;1.70;;;13.90;99.90;;;;;;5036935;28;20174;-76
2022/07/08 00:54:16;;;;;;;5.07;1.90;;;13.90;99.90;;;;;;5037399;28;20668;-76
2022/07/08 00:56:42;;;;;;;4.72;1.90;;;14.00;99.90;;;;;;5036831;28;20182;-76
2022/07/08 00:59:09;;;;;;;3.67;1.80;;;14.00;99.90;;;;;;5054943;28;20540;-76
2022/07/08 01:01:34;;;;;;;9.40;2.33;;;14.00;99.90;;;;;;5037679;28;20178;-76
2022/07/08 01:04:00;;;;;;;8.50;2.05;;;13.90;99.90;;;;;;5036575;28;20217;-76
2022/07/08 01:06:26;;;;;;;9.45;2.10;;;13.90;99.90;;;;;;5054771;28;20170;-76
2022/07/08 01:12:13;;;;;;;9.48;2.03;;;14.00;99.90;;;;;;5054859;28;20189;-76
2022/07/08 01:14:39;;;;;;;6.18;2.38;;;13.90;99.90;;;;;;5036792;28;20197;-76
2022/07/08 01:17:05;;;;;;;6.80;2.10;;;13.90;99.90;;;;;;5036497;28;20178;-76
2022/07/08 01:19:32;;;;;;;6.13;2.13;;;13.90;99.90;;;;;;5036475;28;20213;-76
2022/07/08 01:21:58;;;;;;;9.00;2.10;;;13.90;99.90;;;;;;5036756;28;20200;-76
2022/07/08 01:24:24;;;;;;;4.95;1.90;;;13.90;99.90;;;;;;5054003;28;20209;-76
2022/07/08 01:26:49;;;;;;;7.85;1.73;;;13.80;99.90;;;;;;5036340;28;20194;-76
2022/07/08 01:29:15;;;;;;;7.47;1.83;;;13.80;99.90;;;;;;5054471;28;20227;-76
2022/07/08 01:31:41;;;;;;;3.13;1.67;;;13.80;99.90;;;;;;5037009;28;20178;-76
2022/07/08 01:34:06;;;;;;;7.60;1.83;;;13.80;99.90;;;;;;5035661;28;20198;-76
2022/07/08 01:36:33;;;;;;;6.18;2.45;;;13.70;99.90;;;;;;5054274;28;20178;-76
2022/07/08 01:38:58;;;;;;;4.65;2.08;;;13.70;99.90;;;;;;5036215;28;20185;-76
2022/07/08 01:41:24;;;;;;;7.55;2.10;;;13.70;99.90;;;;;;5036432;28;20174;-76
2022/07/08 01:43:50;;;;;;;5.28;1.90;;;13.70;99.90;;;;;;5037072;28;20221;-76
2022/07/08 01:46:15;;;;;;;4.05;1.92;;;13.70;99.90;;;;;;5036769;28;20255;-76
2022/07/08 01:48:41;;;;;;;6.47;1.95;;;13.70;99.90;;;;;;5036198;28;20210;-76
2022/07/08 01:51:07;;;;;;;7.45;2.03;;;13.70;99.90;;;;;;5036200;28;20174;-76
2022/07/08 01:53:33;;;;;;;5.43;1.90;;;13.70;99.90;;;;;;5035805;28;20202;-76
2022/07/08 01:55:58;;;;;;;5.55;2.00;;;13.70;99.90;;;;;;5053969;28;20241;-76
2022/07/08 01:58:24;;;;;;;5.57;1.73;;;13.70;99.90;;;;;;5053891;28;20201;-76
2022/07/08 02:00:50;;;;;;;6.63;2.10;;;13.70;99.90;;;;;;5036683;28;20577;-76
2022/07/08 02:03:15;;;;;;;6.18;2.28;;;13.70;99.90;;;;;;5035637;28;20233;-76
2022/07/08 02:05:41;;;;;;;8.35;1.92;;;13.60;99.90;;;;;;5036026;28;20640;-76
2022/07/08 02:08:07;;;;;;;5.13;2.10;;;13.60;99.90;;;;;;5036018;28;20174;-76
2022/07/08 02:12:18;;;;;;;6.63;1.88;;;13.50;99.90;;;;;;5036547;28;20182;-76
2022/07/08 02:13:18;;;;;;;5.30;1.88;;;13.50;99.90;;;;;;5053232;28;20204;-76
2022/07/08 02:15:44;;;;;;;7.57;2.15;;;13.40;99.90;;;;;;5035895;28;20178;-76
2022/07/08 02:18:11;;;;;;;7.18;2.25;;;13.40;99.90;;;;;;5035541;28;20185;-76
2022/07/08 02:20:36;;;;;;;7.85;2.20;;;13.30;99.90;;;;;;5053356;28;20173;-76
2022/07/08 02:23:02;;;;;;;6.22;1.90;;;13.30;99.90;;;;;;5035436;28;20213;-76
2022/07/08 02:25:27;;;;;;;6.55;2.00;;;13.20;99.90;;;;;;5035478;28;20213;-76
2022/07/08 02:27:53;;;;;;;7.10;2.08;;;13.20;99.90;;;;;;5035930;28;20193;-76
2022/07/08 02:30:19;;;;;;;7.35;2.47;;;13.10;99.90;;;;;;5035548;28;20170;-76
2022/07/08 02:32:44;;;;;;;6.47;2.08;;;13.00;99.90;;;;;;5035436;28;20185;-76
2022/07/08 02:35:10;;;;;;;6.45;2.00;;;13.10;99.90;;;;;;5036189;28;20237;-76
2022/07/08 02:37:35;;;;;;;6.88;2.40;;;13.10;99.90;;;;;;5035637;28;20185;-76
2022/07/08 02:40:01;;;;;;;11.20;2.50;;;13.00;99.90;;;;;;5035736;28;20174;-76
2022/07/08 02:42:26;;;;;;;6.15;1.95;;;13.00;99.90;;;;;;5035229;28;20181;-76
2022/07/08 02:44:52;;;;;;;6.55;2.10;;;13.00;99.90;;;;;;5035906;28;20194;-76
2022/07/08 02:47:17;;;;;;;9.52;2.28;;;13.00;99.90;;;;;;5039385;28;20247;-76
2022/07/08 02:49:43;;;;;;;6.30;1.90;;;13.00;99.90;;;;;;5039647;28;20193;-76
2022/07/08 02:52:09;;;;;;;5.22;2.05;;;13.10;99.90;;;;;;5039817;28;20172;-76
2022/07/08 02:54:34;;;;;;;6.72;2.45;;;13.00;99.90;;;;;;5039503;28;20216;-76
2022/07/08 02:57:00;;;;;;;8.75;1.98;;;13.00;99.90;;;;;;5039183;28;20221;-76
2022/07/08 02:59:25;;;;;;;7.53;2.20;;;13.00;99.90;;;;;;5039283;28;20170;-76
2022/07/08 03:01:51;;;;;;;7.50;2.20;;;13.00;99.90;;;;;;5039395;28;20235;-76
2022/07/08 03:04:16;;;;;;;6.78;2.33;;;12.90;99.90;;;;;;5038909;28;20260;-76
2022/07/08 03:06:42;;;;;;;8.88;2.25;;;12.80;99.90;;;;;;5039340;28;20185;-76
2022/07/08 03:09:08;;;;;;;8.88;2.15;;;12.80;99.90;;;;;;5038908;28;20265;-76
2022/07/08 03:11:33;;;;;;;9.48;2.40;;;12.70;99.90;;;;;;5038879;28;20178;-76
2022/07/08 03:13:59;;;;;;;6.65;2.15;;;12.70;99.90;;;;;;5038848;28;20198;-76
2022/07/08 03:16:25;;;;;;;7.32;2.28;;;12.70;99.90;;;;;;5038842;28;20179;-76
2022/07/08 03:18:50;;;;;;;7.45;2.35;;;12.70;99.90;;;;;;5038852;28;20726;-76
2022/07/08 03:21:16;;;;;;;6.28;2.20;;;12.70;99.90;;;;;;5038996;28;20193;-76
2022/07/08 03:23:41;;;;;;;6.72;2.10;;;12.60;99.90;;;;;;5056373;28;20210;-76
2022/07/08 03:26:07;;;;;;;5.25;1.98;;;12.70;99.90;;;;;;5056670;28;20299;-76
2022/07/08 03:28:33;;;;;;;7.60;2.25;;;12.80;99.90;;;;;;5038653;28;20174;-76
2022/07/08 03:30:58;;;;;;;7.43;2.22;;;12.80;99.90;;;;;;5038599;28;20265;-76
2022/07/08 03:33:24;;;;;;;5.05;2.30;;;12.80;99.90;;;;;;5038742;28;20548;-76
2022/07/08 03:35:49;;;;;;;7.28;2.20;;;12.80;99.90;;;;;;5056263;28;20257;-76
2022/07/08 03:38:16;;;;;;;13.50;2.65;;;12.90;99.90;;;;;;5056278;28;20177;-76
2022/07/08 03:43:25;;;;;;;7.55;2.65;;;12.90;99.90;;;;;;5056225;28;20204;-76
2022/07/08 03:45:51;;;;;;;5.85;2.38;;;13.00;99.90;;;;;;5056358;28;20246;-76
2022/07/08 03:48:16;;;;;;;6.25;2.30;;;13.00;99.90;;;;;;5039393;28;20193;-76
2022/07/08 03:50:42;;;;;;;5.57;2.22;;;13.00;99.90;;;;;;5038528;28;20188;-76
2022/07/08 03:53:08;;;;;;;6.65;2.17;;;13.00;99.90;;;;;;5055999;28;20174;-76
2022/07/08 03:55:33;;;;;;;5.95;2.25;;;13.00;99.90;;;;;;5038300;28;20202;-76
2022/07/08 03:58:14;;;;;;;4.78;1.98;;;13.10;99.90;;;;;;5056472;28;20186;-76
2022/07/08 04:00:40;;;;;;;5.75;1.90;;;13.20;99.90;;;;;;5050248;28;20166;-76
2022/07/08 04:03:06;;;;;;;5.90;1.95;;;13.20;99.90;;;;;;5051132;28;20305;-76
2022/07/08 04:05:32;;;;;;;5.88;2.05;;;13.20;99.90;;;;;;5051130;28;20190;-76
2022/07/08 04:07:58;;;;;;;10.52;2.38;;;13.20;99.90;;;;;;5051505;28;20209;-76
2022/07/08 04:10:25;;;;;;;7.93;2.15;;;13.20;99.90;;;;;;5051025;28;20194;-76
2022/07/08 04:12:51;;;;;;;6.85;2.45;;;13.30;99.90;;;;;;5050773;28;20193;-76
2022/07/08 04:15:20;;;;;;;10.85;2.45;;;13.30;99.90;;;;;;5049340;28;20209;-77
2022/07/08 04:17:47;;;;;;;6.30;1.80;;;13.40;99.90;;;;;;5048757;28;20679;-76
2022/07/08 04:20:13;;;;;;;8.35;2.30;;;13.40;99.90;;;;;;5048509;28;20202;-76
2022/07/08 04:22:39;;;;;;;9.25;2.30;;;13.50;99.90;;;;;;5048494;28;20209;-76
2022/07/08 04:25:07;;;;;;;6.55;2.08;;;13.50;99.90;;;;;;5048136;28;20224;-76
2022/07/08 04:27:34;;;;;;;8.10;2.22;;;13.60;99.90;;;;;;5048987;28;20186;-77
2022/07/08 04:30:01;;;;;;;8.15;2.17;;;13.60;99.90;;;;;;5050981;28;20182;-76
2022/07/08 04:32:28;;;;;;;7.43;2.28;;;13.70;99.90;;;;;;5051455;28;20174;-77
2022/07/08 04:34:58;;;;;;;8.68;2.30;;;13.80;99.90;;;;;;5038766;28;20302;-77
2022/07/08 04:37:31;;;;;;;6.43;2.40;;;13.90;99.90;;;;;;5037315;28;20220;-76
2022/07/08 04:39:57;;;;;;;7.45;2.30;;;13.90;99.90;;;;;;5037341;28;20244;-76
2022/07/08 04:42:22;;;;;;;7.05;2.20;;;14.00;99.90;;;;;;5037508;28;20171;-76
2022/07/08 04:44:49;;;;;;;9.30;2.20;;;14.00;99.90;;;;;;5037551;28;20190;-83
2022/07/08 04:47:14;;;;;;;6.15;2.35;;;14.00;99.90;;;;;;5038635;28;20174;-77
2022/07/08 04:49:40;;;;;;;9.77;2.70;;;13.90;99.90;;;;;;5055410;28;20652;-76
2022/07/08 04:52:19;;;;;;;6.05;1.98;;;13.90;99.90;;;;;;5037156;28;20244;-77
2022/07/08 04:54:45;;;;;;;6.18;2.08;;;14.00;99.90;;;;;;5037506;28;20202;-76
2022/07/08 04:57:10;;;;;;;8.70;2.42;;;14.10;99.90;;;;;;5036958;28;20178;-76
2022/07/08 04:59:36;;;;;;;7.28;2.35;;;14.20;99.90;;;;;;5036813;28;20178;-76
2022/07/08 05:02:02;;;;;;;8.20;2.20;;;14.40;99.90;;;;;;5037526;28;20213;-76
2022/07/08 05:04:28;;;;;;;7.28;2.35;;;14.50;99.90;;;;;;5036972;28;20206;-76
2022/07/08 05:06:53;;;;;;;5.65;2.25;;;14.50;99.90;;;;;;5036669;28;20186;-76
2022/07/08 05:09:19;;;;;;;5.35;2.03;;;14.70;99.90;;;;;;5036685;28;20170;-76
2022/07/08 05:11:44;;;;;;;12.05;2.30;;;14.70;99.90;;;;;;5037494;28;20174;-76
2022/07/08 05:14:13;;;;;;;8.82;2.47;;;14.90;99.90;;;;;;5037036;28;20331;-76
2022/07/08 05:16:40;;;;;;;9.60;2.55;;;14.90;99.90;;;;;;5036490;28;20178;-76
2022/07/08 05:19:06;;;;;;;11.23;2.58;;;14.90;99.90;;;;;;5036496;28;20269;-76
2022/07/08 05:21:32;;;;;;;7.07;2.38;;;14.90;99.90;;;;;;5054978;28;20256;-76
2022/07/08 05:23:58;;;;;;;11.68;2.33;;;15.00;99.90;;;;;;5036494;28;20264;-76
2022/07/08 05:26:23;;;;;;;8.25;2.25;;;15.10;99.90;;;;;;5054353;28;20194;-76
2022/07/08 05:28:49;;;;;;;11.05;2.50;;;15.20;99.90;;;;;;5036971;28;20171;-76
2022/07/08 05:31:15;;;;;;;11.73;2.67;;;15.20;99.90;;;;;;5036250;28;20261;-80
2022/07/08 05:33:40;;;;;;;11.57;2.78;;;15.20;99.90;;;;;;5036361;28;20202;-77
2022/07/08 05:36:06;;;;;;;8.45;2.55;;;15.20;99.90;;;;;;5036308;28;20557;-76
2022/07/08 05:38:33;;;;;;;8.25;2.47;;;15.30;99.90;;;;;;5036079;28;20185;-77
2022/07/08 05:40:58;;;;;;;11.65;2.30;;;15.30;99.90;;;;;;5036509;28;20178;-76
2022/07/08 05:43:24;;;;;;;11.75;2.60;;;15.40;99.90;;;;;;5036208;28;20618;-76
2022/07/08 05:45:49;;;;;;;11.48;2.58;;;15.40;99.90;;;;;;5036109;28;20217;-76
2022/07/08 05:48:15;;;;;;;7.43;2.47;;;15.40;99.90;;;;;;5036031;28;20588;-76
2022/07/08 05:50:41;;;;;;;8.70;2.70;;;15.40;99.90;;;;;;5035971;28;20202;-76
2022/07/08 05:53:06;;;;;;;9.93;2.47;;;15.40;99.90;;;;;;5036256;28;20179;-76
2022/07/08 05:55:32;;;;;;;9.27;2.30;;;15.50;99.90;;;;;;5035868;28;20190;-76
2022/07/08 05:57:57;;;;;;;8.85;2.70;;;15.50;99.90;;;;;;5035848;28;20206;-76
2022/07/08 06:00:23;;;;;;;8.88;2.20;;;15.70;99.90;;;;;;5036579;28;20174;-76
2022/07/08 06:02:49;;;;;;;8.95;2.58;;;15.90;99.90;;;;;;5035716;28;20224;-77
2022/07/08 06:05:15;;;;;;;9.75;2.60;;;15.90;99.90;;;;;;5036006;28;20222;-76
2022/07/08 06:07:41;;;;;;;11.35;2.42;;;15.80;99.90;;;;;;5035752;28;20206;-77
2022/07/08 06:10:07;;;;;;;14.77;2.85;;;16.00;99.90;;;;;;5035989;28;20174;-76
2022/07/08 06:12:32;;;;;;;7.15;2.28;;;16.20;99.90;;;;;;5035966;28;20197;-77
2022/07/08 06:14:58;;;;;;;10.57;3.13;;;16.30;99.90;;;;;;5035736;28;20198;-76
2022/07/08 06:17:24;;;;;;;12.82;3.47;;;16.40;99.90;;;;;;5035942;28;20170;-77
2022/07/08 06:19:49;;;;;;;11.30;3.78;;;16.60;99.90;;;;;;5035330;28;20217;-77
2022/07/08 06:22:15;;;;;;;12.30;3.20;;;16.80;99.90;;;;;;5035445;28;20178;-77
2022/07/08 06:24:40;;;;;;;7.53;2.72;;;16.70;99.90;;;;;;5053098;28;20591;-77
2022/07/08 06:27:06;;;;;;;14.40;3.30;;;16.70;99.90;;;;;;5053475;28;20186;-77
2022/07/08 06:29:32;;;;;;;16.65;3.30;;;16.80;99.90;;;;;;5035421;28;20210;-77
2022/07/08 06:31:58;;;;;;;13.45;3.28;;;16.80;99.90;;;;;;5036141;28;20185;-77
2022/07/08 06:34:23;;;;;;;10.68;2.95;;;16.90;99.90;;;;;;5036084;28;20201;-77
2022/07/08 06:36:49;;;;;;;6.75;2.28;;;17.00;99.90;;;;;;5035326;28;20200;-77
2022/07/08 06:39:15;;;;;;;6.75;2.30;;;17.00;99.90;;;;;;5035370;28;20185;-77
2022/07/08 06:41:40;;;;;;;11.88;3.10;;;16.90;99.90;;;;;;5035175;28;20189;-76
2022/07/08 06:44:06;;;;;;;8.27;2.70;;;16.90;99.90;;;;;;5035448;28;20214;-77
2022/07/08 06:46:32;;;;;;;9.57;2.40;;;16.80;99.90;;;;;;5035816;28;20220;-76
2022/07/08 06:48:58;;;;;;;8.02;2.45;;;16.80;99.90;;;;;;5035119;28;20181;-80
2022/07/08 06:51:23;;;;;;;10.43;2.60;;;16.70;99.90;;;;;;5035818;28;20181;-76
2022/07/08 06:56:33;;;;;;;9.43;2.97;;;16.70;99.90;;;;;;5053569;28;20167;-76
2022/07/08 06:58:59;;;;;;;8.00;2.72;;;16.70;99.90;;;;;;5035184;28;20564;-76
2022/07/08 07:01:24;;;;;;;9.52;2.63;;;16.70;99.90;;;;;;5035550;28;20174;-76
2022/07/08 07:03:50;;;;;;;9.68;2.50;;;16.80;99.90;;;;;;5035807;28;20206;-76
2022/07/08 07:06:15;;;;;;;7.32;2.35;;;16.60;99.90;;;;;;5052917;28;20584;-76
2022/07/08 07:08:41;;;;;;;7.85;2.67;;;16.80;99.90;;;;;;5053173;28;20185;-76
2022/07/08 07:11:07;;;;;;;9.40;2.67;;;17.20;99.90;;;;;;5035107;28;20637;-76
2022/07/08 07:13:32;;;;;;;5.03;1.95;;;17.40;99.60;;;;;;5034978;28;20236;-76
2022/07/08 07:15:58;;;;;;;10.30;2.70;;;17.70;98.60;;;;;;5035378;28;20182;-76
2022/07/08 07:18:25;;;;;;;9.73;2.55;;;17.90;97.80;;;;;;5035028;28;20174;-76
2022/07/08 07:20:51;;;;;;;5.55;2.08;;;18.10;97.10;;;;;;5035354;28;20224;-76
2022/07/08 07:23:16;;;;;;;12.35;2.60;;;18.20;95.60;;;;;;5034829;28;20210;-76
2022/07/08 07:25:42;;;;;;;10.48;2.17;;;18.40;95.60;;;;;;5034995;28;20269;-76
2022/07/08 07:28:07;;;;;;;11.95;2.92;;;18.70;94.80;;;;;;5035551;28;20198;-77
2022/07/08 07:30:33;;;;;;;10.57;2.60;;;18.80;94.40;;;;;;5035753;28;20174;-76
2022/07/08 07:32:58;;;;;;;5.85;2.03;;;18.80;94.00;;;;;;5054890;28;20181;-76
2022/07/08 07:35:24;;;;;;;11.98;2.50;;;18.50;93.90;;;;;;5038457;28;20194;-76
2022/07/08 07:37:50;;;;;;;6.35;2.05;;;18.50;93.80;;;;;;5038777;28;20174;-76
2022/07/08 07:40:15;;;;;;;14.30;2.92;;;18.30;94.00;;;;;;5038375;28;20273;-76
2022/07/08 07:42:41;;;;;;;9.80;2.72;;;18.50;94.70;;;;;;5039371;28;20216;-76
2022/07/08 07:45:07;;;;;;;8.25;2.60;;;18.40;94.50;;;;;;5038212;28;20198;-76
2022/07/08 07:47:33;;;;;;;11.25;2.60;;;18.40;94.50;;;;;;5038261;28;20637;-76
2022/07/08 07:49:59;;;;;;;7.40;2.38;;;18.40;95.30;;;;;;5039349;28;20257;-76
2022/07/08 07:52:24;;;;;;;9.07;2.20;;;18.70;94.40;;;;;;5038173;28;20174;-76
2022/07/08 07:54:50;;;;;;;4.72;2.10;;;18.80;93.50;;;;;;5038936;28;20209;-77
2022/07/08 07:57:16;;;;;;;5.53;2.15;;;18.90;93.30;;;;;;5038120;28;20185;-76
2022/07/08 07:59:41;;;;;;;6.72;2.42;;;18.60;93.10;;;;;;5038763;28;20613;-76
2022/07/08 08:02:07;;;;;;;9.13;2.45;;;18.50;93.60;;;;;;5037981;28;20180;-76
2022/07/08 08:04:33;;;;;;;8.40;2.20;;;18.50;93.70;;;;;;5037596;28;20232;-76
2022/07/08 08:07:00;;;;;;;9.68;2.75;;;18.60;93.20;;;;;;5038830;28;20617;-76
2022/07/08 08:09:26;;;;;;;8.30;2.50;;;18.60;93.00;;;;;;5038037;28;20718;-76
2022/07/08 08:11:52;;;;;;;9.60;2.53;;;18.80;92.80;;;;;;5038882;28;20516;-76
2022/07/08 08:14:17;;;;;;;6.30;2.00;;;19.10;92.00;;;;;;5038608;28;20206;-76
2022/07/08 08:16:43;;;;;;;9.38;2.25;;;19.30;91.60;;;;;;5037765;28;20174;-76
2022/07/08 08:19:08;;;;;;;8.52;2.40;;;19.50;91.60;;;;;;5037998;28;20179;-76
2022/07/08 08:21:36;;;;;;;7.22;1.95;;;19.50;90.50;;;;;;5037704;28;20214;-76
2022/07/08 08:24:02;;;;;;;7.97;2.30;;;19.60;90.60;;;;;;5037399;28;20224;-76
2022/07/08 08:26:27;;;;;;;6.88;2.25;;;19.70;89.50;;;;;;5038015;28;20248;-76
2022/07/08 08:28:53;;;;;;;6.75;2.35;;;19.70;90.20;;;;;;5038395;28;20174;-76
2022/07/08 08:31:19;;;;;;;6.45;2.10;;;19.90;88.20;;;;;;5055335;28;20171;-76
2022/07/08 08:33:44;;;;;;;6.82;2.63;;;19.90;88.10;;;;;;5037746;28;20204;-77
2022/07/08 08:36:10;;;;;;;8.38;2.30;;;20.10;87.30;;;;;;5038222;28;20243;-76
2022/07/08 08:38:56;;;;;;;8.07;2.25;;;20.00;86.40;;;;;;5037440;28;20182;-76
2022/07/08 08:41:22;;;;;;;3.80;1.80;;;19.70;86.50;;;;;;5037579;28;20174;-76
2022/07/08 08:43:48;;;;;;;12.63;2.47;;;19.50;87.60;;;;;;5036719;28;20673;-77
2022/07/08 08:46:18;;;;;;;8.93;2.03;;;19.60;87.70;;;;;;5055261;28;20170;-76
2022/07/08 08:48:46;;;;;;;8.23;2.08;;;20.00;86.80;;;;;;5037428;28;20203;-76
2022/07/08 08:51:17;;;;;;;7.50;2.10;;;20.30;85.60;;;;;;5037004;28;20184;-77
2022/07/08 08:53:44;;;;;;;8.80;2.20;;;20.70;83.00;;;;;;5036980;28;20206;-77
2022/07/08 08:56:12;;;;;;;8.07;2.50;;;20.90;82.80;;;;;;5054829;28;20202;-77
2022/07/08 08:58:49;;;;;;;4.40;1.90;;;21.00;82.60;;;;;;5037766;28;20208;-77
2022/07/08 09:01:18;;;;;;;9.60;2.60;;;21.00;79.00;;;;;;5037847;28;20178;-77
2022/07/08 09:03:44;;;;;;;5.38;2.13;;;21.00;80.80;;;;;;5055237;28;20281;-77
2022/07/08 09:06:10;;;;;;;10.73;2.35;;;21.40;79.30;;;;;;5036778;28;20201;-77
2022/07/08 09:08:36;;;;;;;8.13;2.47;;;21.20;76.40;;;;;;5037813;28;20257;-77
2022/07/08 09:11:03;;;;;;;5.63;1.77;;;21.50;77.60;;;;;;5036717;28;20178;-77
2022/07/08 09:13:29;;;;;;;7.78;2.03;;;21.50;75.50;;;;;;5036489;28;20239;-77
2022/07/08 09:15:59;;;;;;;6.43;1.95;;;21.20;75.80;;;;;;5054445;28;20637;-77
2022/07/08 09:18:29;;;;;;;7.38;2.33;;;21.20;75.50;;;;;;5054614;28;20163;-77
2022/07/08 09:21:29;;;;;;;6.85;2.03;;;21.30;77.00;;;;;;5054398;28;20240;-77
2022/07/08 09:23:55;;;;;;;12.85;2.55;;;21.40;76.90;;;;;;5036343;28;20231;-77
2022/07/08 09:26:26;;;;;;;4.85;2.13;;;21.80;75.60;;;;;;5054488;28;20263;-77
2022/07/08 09:28:52;;;;;;;4.18;2.08;;;22.00;74.70;;;;;;5036370;28;20718;-77
2022/07/08 09:31:17;;;;;;;9.50;2.60;;;21.80;73.90;;;;;;5036310;28;20179;-77
2022/07/08 09:33:43;;;;;;;7.93;2.15;;;21.80;72.50;;;;;;5036549;28;20236;-77
2022/07/08 09:36:10;;;;;;;9.40;2.00;;;21.80;73.10;;;;;;5054387;28;20182;-77
2022/07/08 09:38:38;;;;;;;6.07;1.77;;;21.90;71.30;;;;;;5036474;28;20182;-77
2022/07/08 09:41:06;;;;;;;8.80;2.20;;;21.60;73.50;;;;;;5036019;28;20178;-77
2022/07/08 09:43:33;;;;;;;7.53;2.22;;;21.40;73.00;;;;;;5036118;28;20209;-77
2022/07/08 09:46:07;;;;;;;7.80;2.22;;;21.00;75.20;;;;;;5036025;28;20174;-77
2022/07/08 09:48:33;;;;;;;6.85;1.95;;;20.90;74.70;;;;;;5054086;28;20165;-77
2022/07/08 09:51:00;;;;;;;6.40;2.10;;;21.30;74.40;;;;;;5035948;28;20213;-77
2022/07/08 09:53:28;;;;;;;9.32;2.05;;;21.10;72.00;;;;;;5036713;28;20181;-77
2022/07/08 09:55:56;;;;;;;6.35;2.30;;;21.20;72.10;;;;;;5035219;28;20178;-77
2022/07/08 09:58:25;;;;;;;5.40;1.67;;;21.00;73.40;;;;;;5035867;28;20353;-77
2022/07/08 10:00:53;;;;;;;3.90;1.90;;;21.30;73.50;;;;;;5053892;28;20220;-77
2022/07/08 10:03:20;;;;;;;5.45;1.90;;;21.50;70.90;;;;;;5036559;28;20202;-77
2022/07/08 10:05:46;;;;;;;7.82;2.20;;;21.60;71.70;;;;;;5035773;28;20171;-77
2022/07/08 10:08:13;;;;;;;6.05;1.80;;;21.70;70.90;;;;;;5035978;28;20652;-77
2022/07/08 10:10:41;;;;;;;5.47;2.10;;;21.80;70.20;;;;;;5036582;28;20178;-77
2022/07/08 10:13:06;;;;;;;4.90;1.80;;;22.10;72.10;;;;;;5036064;28;20178;-77
2022/07/08 10:15:35;;;;;;;6.78;1.95;;;22.30;68.10;;;;;;5036056;28;20632;-77
2022/07/08 10:21:26;;;;;;;4.97;2.08;;;22.60;68.10;;;;;;5053696;28;20162;-77
2022/07/08 10:23:53;;;;;;;7.85;2.75;;;22.60;67.20;;;;;;5053944;28;20310;-77
2022/07/08 10:26:40;;;;;;;6.43;2.40;;;22.60;68.30;;;;;;5035804;28;20182;-77
2022/07/08 10:29:11;;;;;;;6.10;2.20;;;22.80;67.00;;;;;;5035334;28;20198;-77
2022/07/08 10:31:47;;;;;;;8.05;2.17;;;22.40;66.90;;;;;;5035417;28;20170;-77
2022/07/08 10:34:17;;;;;;;4.90;1.67;;;22.50;66.50;;;;;;5053342;28;20194;-77
2022/07/08 10:36:49;;;;;;;4.80;2.13;;;22.40;65.80;;;;;;5035695;28;20182;-77
2022/07/08 10:39:25;;;;;;;14.25;2.40;;;22.10;66.80;;;;;;5035720;28;20182;-77
2022/07/08 10:42:03;;;;;;;5.72;3.00;;;21.80;68.00;;;;;;5053317;28;20154;-77
2022/07/08 10:44:54;;;;;;;4.47;1.63;;;22.00;68.10;;;;;;5052934;28;20625;-77
2022/07/08 10:47:28;;;;;;;4.25;1.73;;;22.00;66.70;;;;;;5035319;28;20208;-77
2022/07/08 10:50:03;;;;;;;6.63;1.75;;;22.00;66.80;;;;;;5035191;28;20173;-77
2022/07/08 10:52:37;;;;;;;1.70;1.50;;;21.70;65.50;;;;;;5049259;28;20177;-77
2022/07/08 10:55:16;;;;;;;6.65;2.05;;;21.50;67.00;;;;;;5055080;28;20203;-77
2022/07/08 10:57:58;;;;;;;6.82;2.40;;;21.60;66.70;;;;;;5039322;28;20251;-77
2022/07/08 11:00:25;;;;;;;7.18;2.38;;;21.80;67.70;;;;;;5035230;28;20170;-77
2022/07/08 11:02:51;;;;;;;5.22;1.70;;;22.20;66.10;;;;;;5035126;28;20228;-77
2022/07/08 11:05:36;;;;;;;5.63;1.88;;;22.60;63.70;;;;;;5035468;28;20194;-77
2022/07/08 11:08:20;;;;;;;6.05;1.77;;;22.40;64.10;;;;;;5056933;28;20192;-77
2022/07/08 11:10:51;;;;;;;3.97;1.58;;;22.20;64.40;;;;;;5059294;28;20165;-77
2022/07/08 11:13:19;;;;;;;4.70;2.10;;;22.30;65.40;;;;;;5058528;28;20189;-77
2022/07/08 11:15:45;;;;;;;5.75;1.75;;;22.50;65.10;;;;;;5076759;28;20169;-77
2022/07/08 11:18:10;;;;;;;7.63;1.88;;;22.90;63.40;;;;;;5058560;28;20272;-77
2022/07/08 11:20:36;;;;;;;5.53;1.85;;;23.00;63.00;;;;;;5076655;28;20632;-77
2022/07/08 11:23:05;;;;;;;3.08;1.88;;;22.80;61.30;;;;;;5058775;28;20232;-77
2022/07/08 11:25:31;;;;;;;3.60;1.50;;;22.80;62.60;;;;;;5058578;28;20684;-77
2022/07/08 11:27:57;;;;;;;4.25;1.60;;;22.70;61.80;;;;;;5058564;28;20236;-77
2022/07/08 11:30:27;;;;;;;3.85;1.73;;;22.40;63.00;;;;;;5058549;28;20216;-77
2022/07/08 11:32:53;;;;;;;4.60;1.50;;;22.10;62.30;;;;;;5058619;28;20196;-77
2022/07/08 11:35:23;;;;;;;4.70;2.22;;;22.00;64.10;;;;;;5058521;28;20205;-77
2022/07/08 11:37:48;;;;;;;3.50;1.50;;;22.20;64.70;;;;;;5058506;28;20253;-77
2022/07/08 11:40:18;;;;;;;4.45;1.83;;;22.20;63.60;;;;;;5076473;28;20209;-77
2022/07/08 11:42:44;;;;;;;3.03;1.70;;;22.00;62.60;;;;;;5075933;28;20173;-77
2022/07/08 11:45:12;;;;;;;4.72;2.00;;;21.80;65.00;;;;;;5058263;28;20193;-77
2022/07/08 11:47:37;;;;;;;4.28;1.90;;;21.60;64.50;;;;;;5045133;28;20204;-77
2022/07/08 11:50:04;;;;;;;12.45;2.50;;;21.40;64.40;;;;;;5038190;28;20548;-76
2022/07/08 11:53:00;;;;;;;8.23;1.92;;;21.30;66.70;;;;;;5038150;28;20185;-77
2022/07/08 11:55:25;;;;;;;4.13;1.63;;;21.70;66.90;;;;;;5038381;28;20232;-77
2022/07/08 11:57:51;;;;;;;4.15;1.55;;;22.20;65.50;;;;;;5053503;28;20223;-77
2022/07/08 12:00:17;;;;;;;4.20;1.70;;;22.50;64.70;;;;;;5058392;28;20631;-77
2022/07/08 12:02:42;;;;;;;3.20;1.58;;;22.70;61.50;;;;;;5058184;28;20681;-77
2022/07/08 12:05:11;;;;;;;3.33;1.70;;;22.50;62.90;;;;;;5049558;28;20205;-77
2022/07/08 12:07:37;;;;;;;3.50;1.60;;;22.40;62.80;;;;;;5055890;28;20619;-78
2022/07/08 12:10:07;;;;;;;5.63;1.77;;;22.50;63.40;;;;;;5037823;28;20182;-78
2022/07/08 12:12:34;;;;;;;4.45;1.75;;;22.80;62.90;;;;;;5038386;28;20178;-78
2022/07/08 12:15:14;;;;;;;7.45;2.17;;;23.10;60.80;;;;;;5038157;28;20194;-78
2022/07/08 12:17:40;;;;;;;5.53;1.90;;;22.90;60.40;;;;;;5055445;28;20169;-78
2022/07/08 12:20:06;;;;;;;3.78;1.52;;;22.90;61.70;;;;;;5055847;28;20182;-78
2022/07/08 12:22:45;;;;;;;10.07;1.90;;;22.80;59.90;;;;;;5048714;28;20182;-78
2022/07/08 12:25:12;;;;;;;6.85;1.88;;;22.90;63.70;;;;;;5057478;28;20288;-78
2022/07/08 12:27:37;;;;;;;5.70;1.77;;;23.20;62.00;;;;;;5057496;28;20198;-77
2022/07/08 12:30:04;;;;;;;3.33;1.73;;;23.00;58.70;;;;;;5058541;28;20519;-78
2022/07/08 12:32:45;;;;;;;7.78;1.90;;;22.90;59.10;;;;;;5074932;28;20648;-78
2022/07/08 12:35:12;;;;;;;4.93;1.80;;;22.90;60.00;;;;;;5057382;28;20676;-78
2022/07/08 12:37:39;;;;;;;3.63;1.50;;;23.00;59.80;;;;;;5046038;28;20649;-78
2022/07/08 12:40:19;;;;;;;10.95;2.42;;;23.20;58.80;;;;;;5037260;28;20667;-77
2022/07/08 12:43:01;;;;;;;3.13;1.60;;;23.10;58.80;;;;;;5037214;28;20186;-77
2022/07/08 12:45:30;;;;;;;2.63;1.35;;;22.70;58.50;;;;;;5054941;28;20198;-78
2022/07/08 12:47:59;;;;;;;5.97;1.90;;;22.50;58.90;;;;;;5037602;28;20181;-77
2022/07/08 12:50:27;;;;;;;4.05;1.70;;;22.30;58.10;;;;;;5037389;28;20174;-77
2022/07/08 12:52:53;;;;;;;17.35;2.90;;;22.00;60.50;;;;;;5055091;28;20188;-77
2022/07/08 12:55:19;;;;;;;5.70;1.85;;;22.10;61.50;;;;;;5036808;28;20206;-77
2022/07/08 12:57:44;;;;;;;5.40;1.90;;;22.10;59.30;;;;;;5037025;28;20273;-77